createdAt,value
2019-05-16T00:00:40.140Z,54.83
2019-05-16T00:03:05.146Z,54.44
2019-05-16T00:05:30.942Z,54.61
2019-05-16T00:07:58.936Z,54.31
2019-05-16T00:10:24.493Z,54.39
2019-05-16T00:12:50.293Z,54.44
2019-05-16T00:15:18.205Z,54.20
2019-05-16T00:17:43.976Z,54.24
2019-05-16T00:20:11.775Z,54.23
2019-05-16T00:22:39.393Z,54.12
2019-05-16T00:25:05.465Z,54.21
2019-05-16T00:27:31.284Z,53.99
2019-05-16T00:29:58.121Z,54.62
2019-05-16T00:32:24.072Z,54.45
2019-05-16T00:34:49.859Z,54.65
2019-05-16T00:37:18.010Z,54.79
2019-05-16T00:39:43.359Z,54.59
2019-05-16T00:42:09.158Z,54.66
2019-05-16T00:44:34.963Z,54.58
2019-05-16T00:47:00.758Z,54.27
2019-05-16T00:49:28.061Z,54.22
2019-05-16T00:51:53.960Z,54.60
2019-05-16T00:54:19.740Z,54.40
2019-05-16T00:56:45.634Z,54.58
2019-05-16T00:59:11.431Z,54.76
2019-05-16T01:01:38.870Z,54.78
2019-05-16T01:04:04.950Z,54.93
2019-05-16T01:06:30.726Z,55.11
2019-05-16T01:08:58.000Z,55.35
2019-05-16T01:11:23.831Z,55.40
2019-05-16T01:13:49.626Z,55.59
2019-05-16T01:16:15.408Z,55.48
2019-05-16T01:18:41.211Z,55.75
2019-05-16T01:21:07.841Z,55.94
2019-05-16T01:23:33.801Z,55.97
2019-05-16T01:25:59.573Z,55.95
2019-05-16T01:28:25.381Z,56.08
2019-05-16T01:30:51.168Z,55.96
2019-05-16T01:33:19.207Z,55.94
2019-05-16T01:35:44.851Z,56.03
2019-05-16T01:38:10.638Z,56.17
2019-05-16T01:40:38.561Z,55.99
2019-05-16T01:43:04.117Z,56.14
2019-05-16T01:45:29.912Z,56.22
2019-05-16T01:47:55.699Z,56.32
2019-05-16T01:50:21.495Z,56.23
2019-05-16T01:52:48.755Z,56.35
2019-05-16T01:55:14.790Z,56.34
2019-05-16T01:57:40.581Z,56.22
2019-05-16T02:00:08.370Z,56.24
2019-05-16T02:02:34.473Z,56.45
2019-05-16T02:05:00.280Z,56.27
2019-05-16T02:07:28.268Z,56.31
2019-05-16T02:09:53.775Z,56.46
2019-05-16T02:12:19.557Z,56.51
2019-05-16T02:14:45.451Z,56.60
2019-05-16T02:17:11.417Z,56.39
2019-05-16T02:19:38.488Z,56.36
2019-05-16T02:22:04.437Z,56.28
2019-05-16T02:24:30.232Z,56.30
2019-05-16T02:26:58.294Z,56.02
2019-05-16T02:29:23.714Z,55.96
2019-05-16T02:31:51.418Z,55.94
2019-05-16T02:34:17.195Z,56.19
2019-05-16T02:36:42.998Z,56.15
2019-05-16T02:39:11.231Z,56.16
2019-05-16T02:41:36.892Z,56.15
2019-05-16T02:44:03.276Z,56.30
2019-05-16T02:46:30.834Z,56.49
2019-05-16T02:48:56.783Z,56.49
2019-05-16T02:51:22.593Z,56.66
2019-05-16T02:53:50.990Z,56.67
2019-05-16T02:56:16.121Z,56.67
2019-05-16T02:58:45.025Z,56.94
2019-05-16T03:01:10.938Z,56.87
2019-05-16T03:03:40.354Z,56.98
2019-05-16T03:06:05.317Z,56.90
2019-05-16T03:08:32.143Z,57.07
2019-05-16T03:11:00.731Z,56.98
2019-05-16T03:13:27.012Z,56.82
2019-05-16T03:15:53.302Z,56.76
2019-05-16T03:18:21.479Z,56.69
2019-05-16T03:20:47.701Z,56.65
2019-05-16T03:23:13.502Z,56.68
2019-05-16T03:25:41.893Z,56.42
2019-05-16T03:28:06.993Z,56.41
2019-05-16T03:30:34.853Z,56.74
2019-05-16T03:33:04.826Z,57.00
2019-05-16T03:35:33.338Z,57.44
2019-05-16T03:38:00.607Z,57.82
2019-05-16T03:40:25.489Z,57.87
2019-05-16T03:42:51.870Z,58.03
2019-05-16T03:45:20.922Z,57.94
2019-05-16T03:47:45.494Z,57.94
2019-05-16T03:50:11.537Z,58.22
2019-05-16T03:52:42.381Z,58.44
2019-05-16T03:55:05.678Z,58.45
2019-05-16T03:57:31.487Z,58.57
2019-05-16T03:59:57.271Z,58.68
2019-05-16T04:02:23.079Z,58.74
2019-05-16T04:04:51.123Z,58.90
2019-05-16T04:07:16.556Z,58.65
2019-05-16T04:09:42.369Z,58.79
2019-05-16T04:12:10.847Z,58.92
2019-05-16T04:14:36.592Z,59.25
2019-05-16T04:17:02.380Z,59.48
2019-05-16T04:19:31.192Z,59.27
2019-05-16T04:21:56.069Z,59.47
2019-05-16T04:24:21.958Z,59.12
2019-05-16T04:26:47.771Z,58.99
2019-05-16T04:29:13.580Z,59.25
2019-05-16T04:31:41.267Z,59.40
2019-05-16T04:34:07.057Z,59.56
2019-05-16T04:36:32.971Z,59.83
2019-05-16T04:39:01.574Z,60.15
2019-05-16T04:41:26.429Z,60.07
2019-05-16T04:43:52.226Z,60.49
2019-05-16T04:46:20.960Z,60.81
2019-05-16T04:48:45.723Z,60.65
2019-05-16T04:51:11.502Z,60.50
2019-05-16T04:53:37.297Z,60.38
2019-05-16T04:56:03.087Z,60.16
2019-05-16T04:58:31.657Z,60.23
2019-05-16T05:00:56.779Z,60.39
2019-05-16T05:03:22.560Z,60.52
2019-05-16T05:05:51.287Z,60.25
2019-05-16T05:08:16.071Z,60.04
2019-05-16T05:10:41.878Z,59.39
2019-05-16T05:13:10.775Z,59.39
2019-05-16T05:15:35.357Z,59.18
2019-05-16T05:18:01.139Z,58.97
2019-05-16T05:20:26.938Z,59.03
2019-05-16T05:22:52.735Z,58.96
2019-05-16T05:25:20.426Z,58.49
2019-05-16T05:27:46.207Z,58.95
2019-05-16T05:30:12.216Z,58.67
2019-05-16T05:32:38.009Z,58.85
2019-05-16T05:35:06.885Z,58.82
2019-05-16T05:37:32.677Z,59.02
2019-05-16T05:39:59.918Z,59.24
2019-05-16T05:42:25.882Z,59.97
2019-05-16T05:44:51.682Z,59.97
2019-05-16T05:47:19.854Z,60.54
2019-05-16T05:49:45.207Z,60.36
2019-05-16T05:52:12.349Z,60.41
2019-05-16T05:54:40.669Z,60.34
2019-05-16T05:57:06.255Z,60.75
2019-05-16T05:59:32.051Z,59.64
2019-05-16T06:02:00.544Z,59.17
2019-05-16T06:04:25.526Z,58.63
2019-05-16T06:06:51.340Z,58.45
2019-05-16T06:09:26.157Z,58.37
2019-05-16T06:11:44.855Z,58.09
2019-05-16T06:14:10.640Z,58.13
2019-05-16T06:16:36.448Z,56.91
2019-05-16T06:19:02.233Z,56.94
2019-05-16T06:21:33.085Z,56.67
2019-05-16T06:23:55.739Z,55.71
2019-05-16T06:26:21.543Z,54.44
2019-05-16T06:28:47.333Z,52.56
2019-05-16T06:31:14.433Z,51.35
2019-05-16T06:33:41.102Z,49.93
2019-05-16T06:36:07.031Z,50.02
2019-05-16T06:38:32.817Z,49.09
2019-05-16T06:41:00.454Z,49.24
2019-05-16T06:43:26.318Z,49.89
2019-05-16T06:45:52.113Z,49.95
2019-05-16T06:48:17.898Z,49.81
2019-05-16T06:50:44.113Z,50.47
2019-05-16T06:53:10.966Z,50.43
2019-05-16T06:55:36.841Z,50.79
2019-05-16T06:58:02.933Z,51.52
2019-05-16T07:00:30.168Z,52.68
2019-05-16T07:02:56.120Z,53.48
2019-05-16T07:05:22.000Z,54.96
2019-05-16T07:07:50.878Z,55.85
2019-05-16T07:10:16.589Z,57.23
2019-05-16T07:12:42.501Z,57.82
2019-05-16T07:15:12.186Z,57.92
2019-05-16T07:17:36.598Z,57.35
2019-05-16T07:20:05.982Z,56.83
2019-05-16T07:22:31.817Z,56.18
2019-05-16T07:24:59.790Z,56.07
2019-05-16T07:27:25.309Z,55.09
2019-05-16T07:29:51.093Z,54.54
2019-05-16T07:32:16.897Z,54.47
2019-05-16T07:34:42.731Z,53.85
2019-05-16T07:37:10.679Z,53.42
2019-05-16T07:39:38.684Z,53.35
2019-05-16T07:42:04.650Z,54.13
2019-05-16T07:44:31.136Z,53.02
2019-05-16T07:46:57.033Z,53.26
2019-05-16T07:49:22.872Z,54.11
2019-05-16T07:51:49.854Z,53.72
2019-05-16T07:54:17.331Z,54.09
2019-05-16T07:56:43.168Z,54.51
2019-05-16T07:59:10.338Z,54.39
2019-05-16T08:01:36.260Z,53.36
2019-05-16T08:04:02.112Z,51.45
2019-05-16T08:06:27.890Z,51.59
2019-05-16T08:08:53.694Z,48.73
2019-05-16T08:11:20.545Z,47.17
2019-05-16T08:13:47.168Z,45.35
2019-05-16T08:16:12.958Z,46.51
2019-05-16T08:18:44.716Z,46.53
2019-05-16T08:21:06.436Z,45.00
2019-05-16T08:23:32.234Z,46.77
2019-05-16T08:26:00.910Z,47.86
2019-05-16T08:28:25.719Z,47.66
2019-05-16T08:30:53.025Z,47.32
2019-05-16T08:33:21.898Z,47.78
2019-05-16T08:35:46.799Z,47.56
2019-05-16T08:38:13.595Z,49.24
2019-05-16T08:41:01.261Z,50.29
2019-05-16T08:43:07.182Z,52.40
2019-05-16T08:45:33.071Z,52.51
2019-05-16T08:48:00.317Z,52.84
2019-05-16T08:50:26.173Z,53.07
2019-05-16T08:52:53.075Z,53.84
2019-05-16T08:55:21.759Z,53.13
2019-05-16T08:57:47.102Z,53.66
2019-05-16T09:00:15.430Z,52.25
2019-05-16T09:05:13.039Z,51.56
2019-05-16T09:07:36.819Z,51.68
2019-05-16T09:10:03.621Z,52.19
2019-05-16T09:10:15.893Z,51.70
2019-05-16T09:12:29.445Z,52.23
2019-05-16T09:14:59.083Z,51.09
2019-05-16T09:17:22.925Z,50.44
2019-05-16T09:19:48.739Z,50.41
2019-05-16T09:22:17.532Z,50.79
2019-05-16T09:24:42.212Z,51.35
2019-05-16T09:27:12.407Z,51.55
2019-05-16T09:29:36.673Z,51.78
2019-05-16T09:32:15.297Z,52.39
2019-05-16T09:34:30.203Z,53.66
2019-05-16T09:37:00.458Z,54.49
2019-05-16T09:39:23.694Z,55.35
2019-05-16T09:41:58.345Z,55.65
2019-05-16T09:44:18.333Z,55.96
2019-05-16T09:46:47.039Z,57.18
2019-05-16T09:49:19.466Z,58.62
2019-05-16T09:51:39.866Z,59.21
2019-05-16T09:54:07.217Z,58.76
2019-05-16T09:56:33.043Z,58.36
2019-05-16T09:58:58.817Z,57.76
2019-05-16T10:01:27.411Z,57.69
2019-05-16T10:03:52.373Z,57.70
2019-05-16T10:06:19.127Z,58.57
2019-05-16T10:08:46.389Z,59.24
2019-05-16T10:11:12.320Z,60.08
2019-05-16T10:13:38.204Z,60.60
2019-05-16T10:16:03.993Z,61.26
2019-05-16T10:18:29.774Z,62.41
2019-05-16T10:20:59.055Z,62.63
2019-05-16T10:23:23.255Z,61.60
2019-05-16T10:25:49.157Z,60.52
2019-05-16T10:28:17.333Z,61.08
2019-05-16T10:30:42.648Z,61.90
2019-05-16T10:33:08.426Z,61.57
2019-05-16T10:35:36.980Z,61.72
2019-05-16T10:38:01.909Z,63.55
2019-05-16T10:40:27.716Z,64.60
2019-05-16T10:42:53.510Z,67.22
2019-05-16T10:45:19.314Z,67.42
2019-05-16T10:47:47.839Z,68.78
2019-05-16T10:50:13.902Z,68.17
2019-05-16T10:52:39.696Z,68.74
2019-05-16T10:55:08.198Z,71.40
2019-05-16T10:57:33.891Z,70.60
2019-05-16T11:00:08.933Z,72.94
2019-05-16T11:02:27.706Z,73.68
2019-05-16T11:05:02.778Z,73.62
2019-05-16T11:07:21.276Z,74.38
2019-05-16T11:09:55.721Z,75.72
2019-05-16T11:12:17.358Z,76.63
2019-05-16T11:14:42.468Z,76.36
2019-05-16T11:17:13.377Z,75.92
2019-05-16T11:19:37.240Z,77.47
2019-05-16T11:22:03.166Z,78.30
2019-05-16T11:24:29.383Z,78.30
2019-05-16T11:26:56.751Z,78.84
2019-05-16T11:29:22.653Z,78.31
2019-05-16T11:31:48.459Z,78.79
2019-05-16T11:34:14.230Z,78.79
2019-05-16T11:36:40.021Z,78.80
2019-05-16T11:39:08.584Z,79.25
2019-05-16T11:41:33.704Z,78.40
2019-05-16T11:43:59.501Z,78.59
2019-05-16T11:46:27.898Z,78.08
2019-05-16T11:48:52.976Z,77.97
2019-05-16T11:51:20.708Z,77.14
2019-05-16T11:53:47.687Z,76.60
2019-05-16T11:56:13.600Z,75.62
2019-05-16T11:58:39.395Z,75.62
2019-05-16T12:01:07.582Z,72.95
2019-05-16T12:03:32.970Z,71.08
2019-05-16T12:05:58.858Z,69.41
2019-05-16T12:08:26.485Z,67.34
2019-05-16T12:10:52.356Z,67.13
2019-05-16T12:13:28.229Z,67.51
2019-05-16T12:15:45.834Z,67.32
2019-05-16T12:18:11.614Z,66.02
2019-05-16T12:20:37.403Z,64.87
2019-05-16T12:23:03.196Z,63.51
2019-05-16T12:25:28.987Z,62.39
2019-05-16T12:27:56.879Z,61.49
2019-05-16T12:30:22.479Z,61.67
2019-05-16T12:32:48.265Z,62.62
2019-05-16T12:35:14.160Z,61.56
2019-05-16T12:37:39.948Z,61.80
2019-05-16T12:40:05.845Z,59.85
2019-05-16T12:42:31.633Z,58.70
2019-05-16T12:44:57.423Z,56.00
2019-05-16T12:47:23.210Z,55.59
2019-05-16T12:49:49.004Z,54.84
2019-05-16T12:52:14.787Z,53.64
2019-05-16T12:54:40.588Z,52.86
2019-05-16T12:57:06.361Z,51.56
2019-05-16T12:59:32.157Z,53.05
2019-05-16T13:01:57.948Z,52.46
2019-05-16T13:04:23.730Z,52.30
2019-05-16T13:06:49.513Z,52.33
2019-05-16T13:09:15.406Z,51.57
2019-05-16T13:11:41.212Z,51.57
2019-05-16T13:14:11.053Z,52.30
2019-05-16T13:16:34.710Z,51.83
2019-05-16T13:19:00.499Z,52.04
2019-05-16T13:21:27.570Z,52.18
2019-05-16T13:23:53.477Z,52.81
2019-05-16T13:26:19.273Z,53.74
2019-05-16T13:28:47.455Z,53.70
2019-05-16T13:31:12.790Z,54.58
2019-05-16T13:33:38.581Z,53.77
2019-05-16T13:36:07.198Z,54.31
2019-05-16T13:38:32.164Z,53.43
2019-05-16T13:40:57.958Z,54.05
2019-05-16T13:43:23.748Z,55.14
2019-05-16T13:45:49.553Z,56.82
2019-05-16T13:48:17.177Z,57.46
2019-05-16T13:50:43.012Z,59.80
2019-05-16T13:53:08.802Z,61.25
2019-05-16T13:55:34.593Z,61.83
2019-05-16T13:58:00.439Z,64.27
2019-05-16T14:00:27.964Z,67.86
2019-05-16T14:02:53.921Z,68.80
2019-05-16T14:05:19.909Z,71.08
2019-05-16T14:07:48.067Z,73.04
2019-05-16T14:10:13.428Z,72.96
2019-05-16T14:12:39.230Z,73.36
2019-05-16T14:15:07.891Z,72.90
2019-05-16T14:17:33.624Z,73.66
2019-05-16T14:19:59.426Z,73.20
2019-05-16T14:22:27.656Z,72.01
2019-05-16T14:24:52.916Z,71.87
2019-05-16T14:27:18.719Z,71.17
2019-05-16T14:29:44.501Z,70.64
2019-05-16T14:32:10.919Z,69.89
2019-05-16T14:34:38.503Z,69.61
2019-05-16T14:37:07.015Z,68.77
2019-05-16T14:39:32.241Z,68.02
2019-05-16T14:41:58.004Z,67.47
2019-05-16T14:44:23.795Z,66.55
2019-05-16T14:46:49.957Z,65.48
2019-05-16T14:49:17.200Z,63.12
2019-05-16T14:51:43.114Z,62.09
2019-05-16T14:54:08.939Z,59.69
2019-05-16T14:56:34.712Z,58.77
2019-05-16T14:59:00.500Z,57.20
2019-05-16T15:01:26.685Z,57.43
2019-05-16T15:03:52.588Z,55.87
2019-05-16T15:06:18.524Z,54.39
2019-05-16T15:08:47.187Z,53.72
2019-05-16T15:11:14.537Z,52.73
2019-05-16T15:13:39.932Z,52.74
2019-05-16T15:16:07.683Z,52.18
2019-05-16T15:18:33.419Z,52.59
2019-05-16T15:20:59.650Z,51.70
2019-05-16T15:23:28.336Z,50.63
2019-05-16T15:25:53.139Z,50.71
2019-05-16T15:28:18.937Z,49.84
2019-05-16T15:30:46.919Z,49.43
2019-05-16T15:33:12.535Z,48.66
2019-05-16T15:35:38.459Z,48.39
2019-05-16T15:38:07.493Z,48.24
2019-05-16T15:40:32.278Z,48.48
2019-05-16T15:42:59.224Z,48.73
2019-05-16T15:45:42.644Z,49.37
2019-05-16T15:48:08.292Z,49.46
2019-05-16T15:50:33.275Z,49.38
2019-05-16T15:52:59.348Z,49.77
2019-05-16T15:55:27.106Z,50.06
2019-05-16T15:57:53.300Z,50.71
2019-05-16T16:00:27.147Z,50.28
2019-05-16T16:02:53.983Z,50.62
2019-05-16T16:05:19.861Z,50.87
2019-05-16T16:07:47.991Z,51.21
2019-05-16T16:10:13.565Z,51.40
2019-05-16T16:12:39.346Z,51.25
2019-05-16T16:15:07.629Z,51.96
2019-05-16T16:17:37.917Z,51.70
2019-05-16T16:20:09.905Z,52.40
2019-05-16T16:22:33.974Z,52.02
2019-05-16T16:24:59.748Z,52.17
2019-05-16T16:27:27.498Z,52.70
2019-05-16T16:29:53.238Z,52.58
2019-05-16T16:32:19.032Z,52.54
2019-05-16T16:34:44.834Z,52.95
2019-05-16T16:37:10.622Z,52.30
2019-05-16T16:39:37.814Z,52.62
2019-05-16T16:42:03.717Z,52.91
2019-05-16T16:44:29.500Z,53.54
2019-05-16T16:46:57.324Z,53.90
2019-05-16T16:49:23.288Z,54.63
2019-05-16T16:51:49.103Z,55.56
2019-05-16T16:54:17.020Z,55.86
2019-05-16T16:56:42.898Z,56.56
2019-05-16T16:59:08.825Z,56.86
2019-05-16T17:01:37.181Z,57.68
2019-05-16T17:04:02.293Z,57.91
2019-05-16T17:06:28.101Z,58.21
2019-05-16T17:08:56.633Z,58.91
2019-05-16T17:11:21.606Z,59.28
2019-05-16T17:13:47.411Z,59.52
2019-05-16T17:16:23.157Z,59.59
2019-05-16T17:18:40.853Z,59.74
2019-05-16T17:21:07.884Z,59.75
2019-05-16T17:23:33.935Z,59.91
2019-05-16T17:25:59.724Z,60.13
2019-05-16T17:28:25.525Z,60.26
2019-05-16T17:30:51.723Z,60.22
2019-05-16T17:33:18.436Z,60.67
2019-05-16T17:35:48.300Z,60.76
2019-05-16T17:38:11.989Z,60.70
2019-05-16T17:40:38.486Z,61.05
2019-05-16T17:43:04.376Z,61.55
2019-05-16T17:45:30.183Z,62.03
2019-05-16T17:47:57.168Z,62.33
2019-05-16T17:50:23.233Z,62.36
2019-05-16T17:52:49.007Z,62.74
2019-05-16T17:55:17.182Z,62.76
2019-05-16T17:57:42.795Z,63.06
2019-05-16T18:00:13.096Z,63.33
2019-05-16T18:02:39.839Z,63.20
2019-05-16T18:05:07.423Z,63.31
2019-05-16T18:07:33.334Z,63.30
2019-05-16T18:09:59.141Z,63.40
2019-05-16T18:12:27.384Z,63.64
2019-05-16T18:14:52.637Z,63.28
2019-05-16T18:17:18.437Z,63.51
2019-05-16T18:19:46.477Z,63.76
2019-05-16T18:22:11.911Z,63.59
2019-05-16T18:24:37.699Z,63.74
2019-05-16T18:27:03.504Z,63.73
2019-05-16T18:29:29.298Z,63.82
2019-05-16T18:31:55.091Z,63.79
2019-05-16T18:34:20.874Z,64.23
2019-05-16T18:36:46.852Z,63.94
2019-05-16T18:39:12.661Z,63.81
2019-05-16T18:41:38.460Z,64.02
2019-05-16T18:44:04.441Z,63.68
2019-05-16T18:46:30.255Z,64.08
2019-05-16T18:48:56.528Z,63.84
2019-05-16T18:51:22.352Z,63.84
2019-05-16T18:53:48.143Z,63.87
2019-05-16T18:56:13.960Z,63.95
2019-05-16T18:58:39.736Z,63.63
2019-05-16T19:01:06.667Z,63.73
2019-05-16T19:03:32.628Z,63.76
2019-05-16T19:05:58.419Z,63.72
2019-05-16T19:08:24.214Z,63.64
2019-05-16T19:10:50.013Z,63.88
2019-05-16T19:13:16.833Z,64.24
2019-05-16T19:15:42.705Z,64.85
2019-05-16T19:18:08.520Z,66.26
2019-05-16T19:20:34.303Z,66.23
2019-05-16T19:23:00.319Z,66.46
2019-05-16T19:25:26.960Z,71.63
2019-05-16T19:27:52.809Z,71.63
2019-05-16T19:30:19.091Z,72.92
2019-05-16T19:32:46.893Z,74.38
2019-05-16T19:35:12.991Z,74.73
2019-05-16T19:37:40.741Z,74.69
2019-05-16T19:40:06.798Z,76.23
2019-05-16T19:42:32.619Z,77.22
2019-05-16T19:44:58.405Z,77.22
2019-05-16T19:47:36.778Z,76.70
2019-05-16T19:49:51.922Z,76.32
2019-05-16T19:52:17.706Z,76.22
2019-05-16T19:54:43.517Z,75.46
2019-05-16T19:57:09.292Z,75.24
2019-05-16T19:59:36.709Z,75.07
2019-05-16T20:02:02.617Z,75.23
2019-05-16T20:04:28.610Z,75.09
2019-05-16T20:06:56.570Z,74.68
2019-05-16T20:09:22.544Z,74.70
2019-05-16T20:11:48.900Z,74.65
2019-05-16T20:14:16.883Z,75.00
2019-05-16T20:16:43.154Z,74.67
2019-05-16T20:19:09.084Z,73.92
2019-05-16T20:21:36.979Z,74.20
2019-05-16T20:24:02.676Z,73.58
2019-05-16T20:26:28.467Z,73.49
2019-05-16T20:28:56.859Z,73.41
2019-05-16T20:31:21.945Z,73.02
2019-05-16T20:33:47.745Z,73.69
2019-05-16T20:36:13.740Z,73.23
2019-05-16T20:38:39.544Z,73.50
2019-05-16T20:41:07.727Z,73.47
2019-05-16T20:43:33.021Z,73.42
2019-05-16T20:46:00.517Z,73.76
2019-05-16T20:48:26.608Z,73.76
2019-05-16T20:50:52.405Z,74.17
2019-05-16T20:53:18.206Z,74.15
2019-05-16T20:55:46.441Z,74.01
2019-05-16T20:58:11.702Z,74.13
2019-05-16T21:00:37.995Z,74.01
2019-05-16T21:03:03.897Z,74.14
2019-05-16T21:05:29.703Z,73.87
2019-05-16T21:07:57.041Z,73.82
2019-05-16T21:10:22.906Z,73.83
2019-05-16T21:12:48.685Z,73.71
2019-05-16T21:15:17.003Z,73.64
2019-05-16T21:17:42.398Z,73.31
2019-05-16T21:20:08.405Z,73.20
2019-05-16T21:22:36.800Z,72.77
2019-05-16T21:25:02.386Z,73.02
2019-05-16T21:27:28.260Z,73.19
2019-05-16T21:29:54.069Z,73.05
2019-05-16T21:32:19.857Z,72.90
2019-05-16T21:34:46.928Z,73.08
2019-05-16T21:37:17.141Z,73.14
2019-05-16T21:39:40.450Z,73.25
2019-05-16T21:42:07.490Z,73.43
2019-05-16T21:44:33.761Z,73.72
2019-05-16T21:46:59.713Z,74.43
2019-05-16T21:49:27.603Z,74.87
2019-05-16T21:51:54.253Z,75.53
2019-05-16T21:54:20.469Z,75.82
2019-05-16T21:56:46.821Z,76.18
2019-05-16T21:59:12.756Z,76.26
2019-05-16T22:01:40.910Z,76.38
2019-05-16T22:04:07.353Z,76.57
2019-05-16T22:06:33.338Z,76.71
2019-05-16T22:08:59.225Z,76.45
2019-05-16T22:11:26.392Z,76.27
2019-05-16T22:13:52.320Z,75.93
2019-05-16T22:16:18.119Z,75.73
2019-05-16T22:18:44.112Z,75.80
2019-05-16T22:21:09.915Z,75.92
2019-05-16T22:23:37.392Z,75.99
2019-05-16T22:26:03.282Z,76.05
2019-05-16T22:28:30.135Z,76.17
2019-05-16T22:30:58.545Z,76.51
2019-05-16T22:33:26.676Z,76.59
2019-05-16T22:35:52.242Z,76.65
2019-05-16T22:38:18.234Z,77.20
2019-05-16T22:40:44.023Z,77.39
2019-05-16T22:43:10.255Z,77.40
2019-05-16T22:45:37.426Z,77.81
2019-05-16T22:48:03.409Z,78.20
2019-05-16T22:50:29.188Z,78.44
2019-05-16T22:52:56.933Z,78.60
2019-05-16T22:55:22.681Z,78.53
2019-05-16T22:57:48.475Z,78.52
2019-05-16T23:00:21.004Z,78.46
2019-05-16T23:02:47.684Z,78.70
2019-05-16T23:05:13.676Z,79.43
2019-05-16T23:07:39.589Z,79.90
2019-05-16T23:10:07.250Z,80.25
2019-05-16T23:12:33.192Z,81.27
2019-05-16T23:14:58.983Z,81.72
2019-05-16T23:17:26.696Z,82.52
2019-05-16T23:19:52.630Z,82.89
2019-05-16T23:22:18.429Z,83.26
2019-05-16T23:24:46.237Z,83.58
2019-05-16T23:27:11.906Z,84.13
2019-05-16T23:29:37.706Z,84.46
2019-05-16T23:32:03.507Z,85.45
2019-05-16T23:34:29.297Z,85.45
2019-05-16T23:36:57.016Z,85.80
2019-05-16T23:39:22.769Z,86.35
2019-05-16T23:41:48.547Z,86.24
2019-05-16T23:44:16.523Z,86.51
2019-05-16T23:46:42.035Z,86.57
2019-05-16T23:49:07.831Z,86.76
2019-05-16T23:51:33.621Z,86.98
2019-05-16T23:53:59.423Z,87.26
2019-05-16T23:56:27.287Z,87.77
2019-05-16T23:58:52.923Z,87.66
